Time;durP1;ratioP1;P1;durP2;ratioP2;P2;SDS_P1;SDS_P2;PMS_P1;PMS_P2;Temp;Humidity;BMP_temperature;BMP_pressure;BME280_temperature;BME280_humidity;BME280_pressure;Samples;Min_cycle;Max_cycle;Signal;HPM_P1;HPM_P2
2022/06/03 00:02:59;;;;;;;0.50;0.50;;;;;;;17.53;41.53;101319.13;5119859;28;20055;-82
2022/06/03 00:06:12;;;;;;;0.30;0.30;;;;;;;17.46;41.97;101317.69;5109473;28;20484;-81
2022/06/03 00:09:12;;;;;;;0.40;0.40;;;;;;;17.44;41.51;101314.25;5071909;28;20157;-81
2022/06/03 00:12:07;;;;;;;3.60;1.48;;;;;;;17.42;41.42;101321.41;5136444;28;20795;-81
2022/06/03 00:14:59;;;;;;;0.50;0.50;;;;;;;17.47;41.26;101319.41;5131046;28;20727;-81
2022/06/03 00:17:51;;;;;;;0.30;0.30;;;;;;;17.42;41.42;101316.97;5097050;28;20051;-81
2022/06/03 00:20:28;;;;;;;0.30;0.30;;;;;;;17.41;41.15;101317.03;5137347;28;20606;-81
2022/06/03 00:23:23;;;;;;;0.47;0.47;;;;;;;17.39;41.36;101318.91;5098204;29;20390;-82
2022/06/03 00:26:00;;;;;;;0.70;0.70;;;;;;;17.39;41.61;101317.09;5132155;28;20047;-81
2022/06/03 00:28:30;;;;;;;0.30;0.30;;;;;;;17.35;41.68;101312.88;5092607;28;20050;-82
2022/06/03 00:31:16;;;;;;;0.75;0.43;;;;;;;17.32;41.98;101315.66;5123209;28;20111;-82
2022/06/03 00:34:23;;;;;;;0.68;0.68;;;;;;;17.35;41.57;101319.97;5154428;28;20420;-82
2022/06/03 00:36:54;;;;;;;0.50;0.50;;;;;;;17.34;41.36;101319.13;5101288;28;20034;-81
2022/06/03 00:39:41;;;;;;;0.40;0.40;;;;;;;17.30;41.40;101313.09;5095425;28;20039;-82
2022/06/03 00:42:31;;;;;;;0.30;0.30;;;;;;;17.28;41.76;101319.38;5113409;28;20070;-82
2022/06/03 00:45:33;;;;;;;0.40;0.40;;;;;;;17.31;41.54;101314.78;5105854;28;20119;-82
2022/06/03 00:48:23;;;;;;;0.40;0.40;;;;;;;17.28;41.69;101309.66;5113698;28;20095;-82
2022/06/03 00:50:56;;;;;;;0.43;0.43;;;;;;;17.27;41.41;101313.22;5124355;28;20047;-82
2022/06/03 00:53:43;;;;;;;0.52;0.52;;;;;;;17.29;41.75;101316.69;5091095;28;20055;-82
2022/06/03 00:56:25;;;;;;;0.30;0.30;;;;;;;17.24;41.63;101308.06;5091453;28;20039;-81
2022/06/03 00:59:33;;;;;;;0.40;0.40;;;;;;;17.22;41.69;101315.25;5091793;29;20046;-82
2022/06/03 01:02:23;;;;;;;0.40;0.40;;;;;;;17.21;41.70;101310.88;5123515;28;20036;-82
2022/06/03 01:05:21;;;;;;;0.32;0.32;;;;;;;17.18;41.81;101305.69;5146798;28;20031;-82
2022/06/03 01:08:20;;;;;;;0.45;0.45;;;;;;;17.19;41.80;101303.91;5098341;28;20035;-82
2022/06/03 01:11:27;;;;;;;2.72;1.48;;;;;;;17.15;42.00;101308.47;5121374;28;20047;-82
2022/06/03 01:14:20;;;;;;;0.30;0.30;;;;;;;17.10;42.14;101303.41;5124489;28;20039;-82
2022/06/03 01:17:03;;;;;;;1.25;1.25;;;;;;;17.11;42.02;101294.50;5108458;28;20043;-82
2022/06/03 01:20:01;;;;;;;0.63;0.63;;;;;;;17.09;42.05;101300.78;5136038;28;20038;-82
2022/06/03 01:22:53;;;;;;;0.40;0.40;;;;;;;17.09;42.11;101300.78;5136435;28;20038;-82
2022/06/03 01:26:11;;;;;;;6.63;1.27;;;;;;;17.05;42.35;101296.59;5112992;28;20059;-82
2022/06/03 01:29:29;;;;;;;0.65;0.65;;;;;;;16.99;42.55;101303.00;5122965;28;20094;-82
2022/06/03 01:32:24;;;;;;;0.65;0.65;;;;;;;16.98;42.23;101302.13;5115233;28;20107;-82
2022/06/03 01:35:13;;;;;;;1.33;0.60;;;;;;;16.94;42.28;101299.72;5104474;28;20043;-82
2022/06/03 01:38:22;;;;;;;0.55;0.45;;;;;;;16.91;42.36;101295.34;5104369;28;20072;-82
2022/06/03 01:41:21;;;;;;;0.30;0.30;;;;;;;16.90;42.54;101298.09;5100927;28;20046;-82
2022/06/03 01:44:31;;;;;;;0.77;0.70;;;;;;;16.85;42.61;101300.94;5106640;28;20047;-82
2022/06/03 01:47:20;;;;;;;0.30;0.30;;;;;;;16.83;42.60;101289.53;5104854;29;20420;-82
2022/06/03 01:50:16;;;;;;;0.45;0.45;;;;;;;16.80;42.61;101285.25;5113977;28;20030;-81
2022/06/03 01:53:29;;;;;;;0.30;0.30;;;;;;;16.75;42.75;101279.28;5101974;28;20500;-82
2022/06/03 01:56:12;;;;;;;0.43;0.43;;;;;;;16.73;42.68;101275.84;5104702;28;20496;-81
2022/06/03 01:58:49;;;;;;;0.55;0.55;;;;;;;16.68;42.55;101278.69;5103082;28;20039;-82
2022/06/03 02:01:41;;;;;;;0.60;0.60;;;;;;;16.68;42.76;101278.69;5128437;28;20039;-82
2022/06/03 02:04:33;;;;;;;0.50;0.50;;;;;;;16.68;43.10;101273.41;5111104;29;20129;-82
2022/06/03 02:07:45;;;;;;;0.50;0.50;;;;;;;16.67;43.09;101270.81;5095393;29;20095;-82
2022/06/03 02:11:07;;;;;;;0.32;0.32;;;;;;;16.63;43.21;101264.81;5112642;28;20142;-81
2022/06/03 02:13:50;;;;;;;0.43;0.43;;;;;;;16.60;42.97;101259.63;5079197;28;20042;-82
2022/06/03 02:16:34;;;;;;;0.70;0.70;;;;;;;16.56;43.08;101258.06;5104705;28;20049;-81
2022/06/03 02:19:23;;;;;;;0.40;0.40;;;;;;;16.57;43.26;101253.59;5131976;28;20043;-81
2022/06/03 02:22:18;;;;;;;0.40;0.40;;;;;;;16.51;43.31;101252.97;5119847;29;20051;-82
2022/06/03 02:25:10;;;;;;;0.60;0.60;;;;;;;16.48;43.40;101253.06;5115693;28;20031;-83
2022/06/03 02:28:10;;;;;;;0.30;0.30;;;;;;;16.46;43.38;101256.72;5141593;28;20046;-82
2022/06/03 02:30:47;;;;;;;1.40;1.30;;;;;;;16.45;43.64;101253.19;5123549;28;20050;-83
2022/06/03 02:33:40;;;;;;;7.82;0.88;;;;;;;16.42;43.58;101258.66;5133302;28;20421;-83
2022/06/03 02:36:11;;;;;;;1.27;1.15;;;;;;;16.39;43.57;101260.56;5140534;28;20031;-83
2022/06/03 02:39:10;;;;;;;0.30;0.30;;;;;;;16.34;43.81;101253.66;5131167;28;20031;-83
2022/06/03 02:42:02;;;;;;;0.40;0.40;;;;;;;16.33;43.61;101249.28;5124160;28;20043;-82
2022/06/03 02:45:04;;;;;;;0.82;0.82;;;;;;;16.30;43.75;101246.78;5126700;28;20062;-83
2022/06/03 02:47:56;;;;;;;0.65;0.65;;;;;;;16.26;43.84;101250.47;5124936;28;20074;-83
2022/06/03 02:50:48;;;;;;;0.60;0.60;;;;;;;16.24;43.72;101235.59;5143881;28;20101;-85
2022/06/03 02:53:37;;;;;;;0.57;0.57;;;;;;;16.20;43.87;101235.72;5126536;28;20042;-83
2022/06/03 02:56:30;;;;;;;1.77;1.45;;;;;;;16.19;44.06;101228.72;5115437;29;20047;-84
2022/06/03 02:59:48;;;;;;;1.08;0.77;;;;;;;16.13;43.96;101233.41;5133396;28;20027;-82
2022/06/03 03:03:04;;;;;;;2.78;0.65;;;;;;;16.09;44.08;101242.38;5138181;28;20082;-84
2022/06/03 03:06:08;;;;;;;0.50;0.50;;;;;;;16.05;44.31;101242.53;5133982;28;20046;-83
2022/06/03 03:09:02;;;;;;;0.40;0.40;;;;;;;16.01;44.03;101240.94;5093709;28;20105;-82
2022/06/03 03:12:00;;;;;;;0.30;0.30;;;;;;;15.99;44.31;101241.91;5114401;28;20046;-82
2022/06/03 03:14:51;;;;;;;0.50;0.50;;;;;;;15.98;44.62;101248.13;5100651;28;20031;-84
2022/06/03 03:17:31;;;;;;;0.40;0.40;;;;;;;15.92;44.54;101243.94;5132472;28;20047;-82
2022/06/03 03:20:25;;;;;;;0.30;0.30;;;;;;;15.90;44.55;101240.53;5122196;28;20058;-84
2022/06/03 03:23:11;;;;;;;0.75;0.75;;;;;;;15.87;44.61;101245.94;5096531;29;20292;-83
2022/06/03 03:26:03;;;;;;;0.30;0.30;;;;;;;15.83;44.85;101253.13;5122671;28;20072;-84
2022/06/03 03:28:46;;;;;;;0.50;0.50;;;;;;;15.81;44.82;101243.53;5138571;28;20038;-83
2022/06/03 03:31:29;;;;;;;0.70;0.70;;;;;;;15.75;44.92;101239.34;5141385;28;20316;-82
2022/06/03 03:34:19;;;;;;;10.73;2.45;;;;;;;15.72;44.76;101229.75;5115814;28;20043;-83
2022/06/03 03:37:21;;;;;;;1.77;0.90;;;;;;;15.70;44.94;101236.88;5108717;28;20095;-84
2022/06/03 03:40:13;;;;;;;2.15;0.93;;;;;;;15.66;45.04;101234.41;5118537;28;20040;-83
2022/06/03 03:43:06;;;;;;;0.30;0.30;;;;;;;15.63;45.24;101230.09;5141654;28;20584;-84
2022/06/03 03:46:17;;;;;;;0.82;0.80;;;;;;;15.60;45.20;101235.50;5134695;28;20055;-83
2022/06/03 03:48:56;;;;;;;0.90;0.90;;;;;;;15.55;45.29;101237.50;5137442;28;20826;-82
2022/06/03 03:51:50;;;;;;;1.95;0.68;;;;;;;15.54;45.22;101230.47;5100741;28;20497;-83
2022/06/03 03:54:54;;;;;;;0.30;0.30;;;;;;;15.50;45.25;101228.84;5139713;28;20034;-83
2022/06/03 03:57:46;;;;;;;0.30;0.30;;;;;;;15.48;45.27;101230.72;5115107;28;20039;-84
2022/06/03 04:00:36;;;;;;;0.80;0.80;;;;;;;15.45;45.40;101226.44;5136675;28;20053;-84
2022/06/03 04:03:45;;;;;;;0.30;0.30;;;;;;;15.42;45.55;101237.09;5119996;28;20114;-83
2022/06/03 04:06:44;;;;;;;0.30;0.30;;;;;;;15.43;45.88;101234.41;5129386;28;20047;-83
2022/06/03 04:09:28;;;;;;;0.77;0.77;;;;;;;15.40;45.83;101228.38;5120426;28;20052;-83
2022/06/03 04:12:14;;;;;;;0.88;0.88;;;;;;;15.38;46.08;101239.00;5103573;28;20043;-83
2022/06/03 04:15:22;;;;;;;0.60;0.60;;;;;;;15.37;46.18;101233.78;5137324;28;20042;-83
2022/06/03 04:18:30;;;;;;;0.63;0.63;;;;;;;15.33;46.18;101235.66;5112385;28;20039;-83
2022/06/03 04:21:23;;;;;;;0.32;0.32;;;;;;;15.30;46.28;101233.16;5132652;28;20050;-83
2022/06/03 04:24:12;;;;;;;0.60;0.60;;;;;;;15.24;46.36;101233.41;5122751;28;20063;-84
2022/06/03 04:26:52;;;;;;;0.52;0.52;;;;;;;15.28;46.81;101221.78;5102533;28;20062;-83
2022/06/03 04:30:02;;;;;;;0.55;0.55;;;;;;;15.21;46.39;101217.66;5138469;28;20050;-84
2022/06/03 04:32:49;;;;;;;0.63;0.63;;;;;;;15.18;46.37;101220.41;5120387;28;20066;-83
2022/06/03 04:35:57;;;;;;;0.57;0.57;;;;;;;15.17;46.87;101216.91;5118324;28;20727;-83
2022/06/03 04:39:09;;;;;;;0.82;0.82;;;;;;;15.16;46.57;101222.28;5110800;28;20229;-84
2022/06/03 04:41:56;;;;;;;0.50;0.50;;;;;;;15.16;46.65;101224.91;5125976;28;20046;-86
2022/06/03 04:44:54;;;;;;;0.52;0.52;;;;;;;15.16;46.94;101232.84;5118222;28;20746;-84
2022/06/03 04:47:27;;;;;;;0.30;0.30;;;;;;;15.08;47.02;101228.69;5132771;28;20429;-84
2022/06/03 04:50:35;;;;;;;0.57;0.57;;;;;;;15.11;46.97;101231.22;5115904;28;20391;-84
2022/06/03 04:53:58;;;;;;;0.47;0.47;;;;;;;15.14;47.16;101226.75;5126990;28;20503;-87
2022/06/03 04:56:29;;;;;;;0.50;0.50;;;;;;;15.15;46.92;101228.47;5123080;28;20046;-83
2022/06/03 04:59:18;;;;;;;0.40;0.40;;;;;;;15.08;47.16;101227.84;5123956;28;20039;-83
2022/06/03 05:02:21;;;;;;;1.00;0.52;;;;;;;15.06;47.31;101229.66;5113938;28;20034;-86
2022/06/03 05:05:22;;;;;;;0.30;0.30;;;;;;;15.06;47.46;101219.97;5099441;28;20541;-85
2022/06/03 05:07:58;;;;;;;1.27;1.23;;;;;;;15.09;47.38;101219.84;5131652;28;20419;-84
2022/06/03 05:10:48;;;;;;;0.70;0.70;;;;;;;15.09;47.52;101214.56;5125794;28;20578;-85
2022/06/03 05:13:44;;;;;;;0.50;0.50;;;;;;;15.10;48.01;101216.28;5123469;28;20030;-85
2022/06/03 05:16:33;;;;;;;0.95;0.95;;;;;;;15.09;47.72;101213.69;5126315;28;20550;-83
2022/06/03 05:19:45;;;;;;;1.20;1.10;;;;;;;15.11;48.59;101206.59;5130459;28;20030;-83
2022/06/03 05:22:49;;;;;;;0.50;0.50;;;;;;;15.11;47.80;101211.88;5082603;28;20609;-83
2022/06/03 05:25:45;;;;;;;0.70;0.70;;;;;;;15.13;48.09;101202.06;5129643;28;20717;-85
2022/06/03 05:28:37;;;;;;;0.73;0.73;;;;;;;15.17;49.95;101202.81;5091338;29;20050;-86
2022/06/03 05:31:38;;;;;;;0.65;0.65;;;;;;;15.14;49.16;101197.66;5129418;28;20039;-84
2022/06/03 05:34:46;;;;;;;0.77;0.77;;;;;;;15.11;50.97;101206.59;5114922;29;20043;-84
2022/06/03 05:37:47;;;;;;;0.40;0.40;;;;;;;15.15;49.53;101199.41;5124986;28;20217;-84
2022/06/03 05:40:30;;;;;;;0.85;0.70;;;;;;;15.25;49.55;101200.75;5122077;28;20046;-84
2022/06/03 05:43:35;;;;;;;0.45;0.45;;;;;;;15.21;49.51;101199.16;5116337;29;20034;-84
2022/06/03 05:46:15;;;;;;;5.47;1.08;;;;;;;15.25;49.41;101200.75;5111559;29;20035;-85
2022/06/03 05:49:11;;;;;;;0.52;0.52;;;;;;;15.24;50.44;101196.41;5124153;28;20031;-87
2022/06/03 05:52:01;;;;;;;0.85;0.43;;;;;;;15.26;50.18;101183.97;5125223;28;20134;-84
2022/06/03 05:55:02;;;;;;;0.60;0.60;;;;;;;15.30;49.41;101180.28;5132187;28;20035;-85
2022/06/03 05:58:05;;;;;;;0.82;0.82;;;;;;;15.39;49.22;101187.84;5135810;28;20070;-86
2022/06/03 06:00:50;;;;;;;0.30;0.30;;;;;;;15.46;48.76;101184.97;5126877;28;20043;-84
2022/06/03 06:03:55;;;;;;;0.40;0.40;;;;;;;15.50;48.78;101173.31;5103768;28;20242;-83
2022/06/03 06:06:34;;;;;;;0.65;0.63;;;;;;;15.50;48.85;101175.97;5115381;28;20039;-84
2022/06/03 06:09:36;;;;;;;1.15;1.15;;;;;;;15.55;48.88;101177.50;5121916;28;20066;-84
2022/06/03 06:12:47;;;;;;;0.35;0.35;;;;;;;15.65;49.08;101183.31;5146932;28;20047;-86
2022/06/03 06:15:41;;;;;;;0.30;0.30;;;;;;;15.71;48.74;101183.03;5117242;28;20058;-84
2022/06/03 06:18:31;;;;;;;0.82;0.52;;;;;;;15.76;48.39;101188.16;5140998;28;20093;-85
2022/06/03 06:21:17;;;;;;;0.30;0.30;;;;;;;15.79;48.34;101174.78;5134149;28;20073;-84
2022/06/03 06:24:42;;;;;;;0.50;0.50;;;;;;;15.81;49.74;101180.03;5136711;28;20097;-83
2022/06/03 06:27:48;;;;;;;0.52;0.52;;;;;;;15.87;48.73;101177.13;5110833;28;20062;-83
2022/06/03 06:30:57;;;;;;;0.65;0.65;;;;;;;15.97;48.30;101181.13;5121501;28;20043;-83
2022/06/03 06:33:47;;;;;;;0.43;0.43;;;;;;;16.01;48.49;101177.41;5128024;28;20031;-83
2022/06/03 06:36:37;;;;;;;0.57;0.57;;;;;;;16.13;48.23;101172.53;5103392;28;20051;-83
2022/06/03 06:39:43;;;;;;;1.63;1.08;;;;;;;16.13;48.76;101183.13;5115059;29;20556;-81
2022/06/03 06:42:29;;;;;;;0.30;0.30;;;;;;;16.24;48.31;101180.00;5049060;29;20062;-81
2022/06/03 06:45:27;;;;;;;0.40;0.40;;;;;;;16.28;48.40;101181.59;5107346;28;20039;-81
2022/06/03 06:48:25;;;;;;;0.30;0.30;;;;;;;16.29;48.06;101189.47;5116850;28;20123;-83
2022/06/03 06:51:24;;;;;;;0.45;0.45;;;;;;;16.36;48.22;101188.25;5118429;28;20121;-81
2022/06/03 06:54:19;;;;;;;0.50;0.50;;;;;;;16.38;47.99;101195.28;5134361;28;20035;-82
2022/06/03 06:57:05;;;;;;;0.40;0.40;;;;;;;16.38;48.24;101195.28;5125914;28;20071;-83
2022/06/03 06:59:43;;;;;;;0.30;0.30;;;;;;;16.40;48.51;101196.09;5119046;28;20026;-81
2022/06/03 07:02:37;;;;;;;0.20;0.20;;;;;;;16.44;48.28;101198.53;5127895;28;20051;-82
2022/06/03 07:05:19;;;;;;;0.43;0.43;;;;;;;16.49;48.65;101188.59;5086799;29;20046;-82
2022/06/03 07:08:18;;;;;;;0.45;0.45;;;;;;;16.56;49.18;101189.19;5127272;28;20517;-83
2022/06/03 07:10:54;;;;;;;0.47;0.47;;;;;;;16.67;48.58;101197.47;5121414;28;20731;-83
2022/06/03 07:13:28;;;;;;;0.35;0.35;;;;;;;16.72;48.34;101189.34;5096834;28;20043;-81
2022/06/03 07:16:10;;;;;;;0.57;0.57;;;;;;;16.78;48.21;101188.19;5116623;28;20051;-83
2022/06/03 07:22:24;;;;;;;0.30;0.30;;;;;;;16.98;48.21;101190.81;5139866;28;20078;-82
2022/06/03 07:25:20;;;;;;;0.28;0.28;;;;;;;17.02;47.88;101185.38;5156021;28;20034;-81
2022/06/03 07:28:12;;;;;;;0.52;0.52;;;;;;;17.11;48.82;101174.34;5112544;28;20074;-83
2022/06/03 07:31:21;;;;;;;0.50;0.50;;;;;;;17.08;48.62;101175.34;5135506;28;20043;-82
2022/06/03 07:34:16;;;;;;;0.50;0.50;;;;;;;17.17;48.25;101171.38;5131036;28;20866;-82
2022/06/03 07:36:50;;;;;;;0.30;0.30;;;;;;;17.36;48.24;101174.00;5129898;28;20042;-82
2022/06/03 07:39:36;;;;;;;0.30;0.30;;;;;;;17.27;49.34;101175.31;5135646;28;20463;-82
2022/06/03 07:42:16;;;;;;;0.40;0.40;;;;;;;17.33;48.93;101168.00;5126236;28;20058;-83
2022/06/03 07:45:12;;;;;;;0.38;0.38;;;;;;;17.43;48.95;101158.66;5134992;28;20459;-84
2022/06/03 07:47:43;;;;;;;0.50;0.50;;;;;;;17.38;49.45;101158.88;5136853;28;20086;-83
2022/06/03 07:50:17;;;;;;;0.22;0.22;;;;;;;17.44;49.00;101147.13;5127000;28;20671;-82
2022/06/03 07:52:54;;;;;;;0.50;0.50;;;;;;;17.53;49.37;101149.31;5141609;28;20050;-82
2022/06/03 07:55:28;;;;;;;0.30;0.30;;;;;;;17.56;49.09;101146.50;5140973;28;20098;-82
2022/06/03 07:58:09;;;;;;;0.35;0.35;;;;;;;17.58;48.85;101152.59;5139929;28;20422;-82
2022/06/03 08:00:43;;;;;;;0.50;0.50;;;;;;;17.65;48.87;101141.66;5127087;28;20091;-81
2022/06/03 08:03:26;;;;;;;0.40;0.40;;;;;;;17.65;48.69;101133.72;5106464;28;1121062;-82
2022/06/03 08:05:59;;;;;;;0.50;0.50;;;;;;;17.79;48.64;101128.59;5119679;28;20035;-82
2022/06/03 08:11:26;;;;;;;0.68;0.68;;;;;;;17.99;50.06;101124.06;5136694;28;20047;-83
2022/06/03 08:14:01;;;;;;;0.50;0.50;;;;;;;17.83;49.84;101119.50;5146261;28;20033;-82
2022/06/03 08:16:42;;;;;;;0.43;0.43;;;;;;;18.04;49.52;101128.19;5122000;28;20042;-82
2022/06/03 08:19:25;;;;;;;0.80;0.50;;;;;;;17.99;49.84;101132.91;5127158;28;20554;-82
2022/06/03 08:22:00;;;;;;;0.50;0.50;;;;;;;18.11;49.14;101123.44;5107604;28;20436;-82
2022/06/03 08:24:41;;;;;;;0.38;0.38;;;;;;;18.17;48.85;101114.28;5122364;28;20043;-85
2022/06/03 08:27:20;;;;;;;0.28;0.28;;;;;;;18.08;49.05;101119.16;5111948;28;20477;-84
2022/06/03 08:30:14;;;;;;;0.30;0.30;;;;;;;18.17;48.94;101122.25;5141364;28;20558;-83
2022/06/03 08:32:50;;;;;;;2.78;0.95;;;;;;;18.19;48.92;101110.59;5136660;28;20563;-83
2022/06/03 08:35:24;;;;;;;0.30;0.30;;;;;;;18.39;48.48;101119.28;5145084;28;20035;-83
2022/06/03 08:38:12;;;;;;;0.38;0.38;;;;;;;18.40;49.14;101121.00;5127434;28;20611;-84
2022/06/03 08:41:02;;;;;;;0.40;0.40;;;;;;;18.52;49.23;101122.16;5138542;28;20156;-83
2022/06/03 08:43:51;;;;;;;0.30;0.30;;;;;;;18.42;48.88;101116.47;5136181;28;20035;-84
2022/06/03 08:46:28;;;;;;;0.20;0.20;;;;;;;18.51;49.49;101113.34;5143137;28;20553;-83
2022/06/03 08:49:02;;;;;;;0.30;0.30;;;;;;;18.64;49.47;101104.69;5126323;28;20533;-85
2022/06/03 08:51:42;;;;;;;0.20;0.20;;;;;;;18.68;49.42;101108.91;5128633;28;20046;-83
2022/06/03 08:54:35;;;;;;;0.20;0.20;;;;;;;18.67;48.98;101104.53;5128861;28;20041;-83
2022/06/03 08:57:23;;;;;;;0.28;0.28;;;;;;;18.73;49.26;101098.84;5109312;28;20042;-83
2022/06/03 09:00:12;;;;;;;0.28;0.28;;;;;;;18.87;49.07;101106.94;5102600;28;20027;-83
2022/06/03 09:02:54;;;;;;;0.30;0.30;;;;;;;18.88;48.41;101103.31;5117539;28;20027;-85
2022/06/03 09:05:54;;;;;;;0.30;0.30;;;;;;;18.95;48.02;101111.00;5115828;28;20051;-84
2022/06/03 09:08:39;;;;;;;0.20;0.20;;;;;;;19.02;47.12;101105.22;5110355;28;20039;-85
2022/06/03 09:11:27;;;;;;;0.40;0.40;;;;;;;19.00;47.42;101096.50;5112000;28;20035;-84
2022/06/03 09:14:22;;;;;;;0.20;0.20;;;;;;;19.09;46.86;101103.09;5127191;28;20074;-83
2022/06/03 09:16:58;;;;;;;0.30;0.30;;;;;;;19.15;46.89;101107.22;5133829;28;20122;-83
2022/06/03 09:19:38;;;;;;;0.20;0.20;;;;;;;19.19;47.08;101106.94;5139150;28;20440;-84
2022/06/03 09:22:19;;;;;;;0.38;0.38;;;;;;;19.21;47.45;101103.34;5134211;28;20046;-83
2022/06/03 09:24:56;;;;;;;0.30;0.30;;;;;;;19.30;47.05;101105.44;5110440;28;20094;-85
2022/06/03 09:27:29;;;;;;;0.38;0.38;;;;;;;19.40;46.95;101096.00;5099029;28;20051;-83
2022/06/03 09:30:03;;;;;;;;;;;;;;;19.41;46.69;101104.84;5130092;28;20092;-84
2022/06/03 09:32:41;;;;;;;0.30;0.30;;;;;;;19.48;46.76;101101.72;5136967;28;20038;-83
2022/06/03 09:35:16;;;;;;;1.20;0.77;;;;;;;19.55;46.54;101099.56;5134635;28;20493;-84
2022/06/03 09:37:55;;;;;;;0.30;0.30;;;;;;;19.77;44.58;101096.50;5109488;28;20468;-83
2022/06/03 09:40:29;;;;;;;0.50;0.50;;;;;;;19.71;45.91;101096.84;5108895;28;20109;-83
2022/06/03 09:43:25;;;;;;;0.45;0.45;;;;;;;19.86;44.52;101099.59;5140450;28;20126;-84
2022/06/03 09:45:59;;;;;;;0.22;0.22;;;;;;;19.78;44.73;101095.56;5142392;28;20101;-83
2022/06/03 09:48:36;;;;;;;0.20;0.20;;;;;;;19.94;44.41;101082.19;5140017;28;20039;-83
2022/06/03 09:51:55;;;;;;;0.20;0.20;;;;;;;19.97;45.32;101081.13;5141994;28;20093;-83
2022/06/03 09:54:24;;;;;;;0.73;0.73;;;;;;;20.04;45.50;101081.63;5136790;28;20039;-83
2022/06/03 09:57:15;;;;;;;0.93;0.60;;;;;;;20.21;43.58;101093.88;5138871;28;20106;-83
2022/06/03 10:00:08;;;;;;;0.40;0.40;;;;;;;20.22;44.38;101087.59;5124656;28;20125;-84
2022/06/03 10:02:52;;;;;;;0.22;0.22;;;;;;;20.28;44.84;101084.59;5143578;28;20030;-84
2022/06/03 10:05:23;;;;;;;0.30;0.30;;;;;;;20.37;44.76;101083.97;5117771;28;20070;-84
2022/06/03 10:08:01;;;;;;;0.30;0.30;;;;;;;20.45;44.46;101080.84;5115015;28;20078;-84
2022/06/03 10:13:24;;;;;;;0.22;0.22;;;;;;;20.76;44.12;101068.25;5145818;28;20035;-83
2022/06/03 10:15:56;;;;;;;0.35;0.35;;;;;;;20.79;44.63;101072.53;5094583;28;20047;-84
2022/06/03 10:18:30;;;;;;;0.40;0.40;;;;;;;20.88;44.92;101069.25;5140013;28;20023;-84
2022/06/03 10:21:04;;;;;;;0.47;0.47;;;;;;;20.97;44.27;101058.00;5143565;28;20046;-84
2022/06/03 10:23:43;;;;;;;0.40;0.40;;;;;;;21.07;44.05;101052.94;5135051;28;20581;-84
2022/06/03 10:26:25;;;;;;;0.30;0.30;;;;;;;21.20;43.08;101063.63;5124404;28;20062;-83
2022/06/03 10:29:06;;;;;;;0.20;0.20;;;;;;;21.41;43.47;101052.47;5139877;28;20027;-83
2022/06/03 10:31:40;;;;;;;0.28;0.28;;;;;;;21.41;43.30;101052.47;5141412;28;20058;-84
2022/06/03 10:34:14;;;;;;;0.43;0.43;;;;;;;21.47;42.65;101050.25;5116056;28;20031;-83
2022/06/03 10:36:51;;;;;;;0.20;0.20;;;;;;;21.63;42.83;101042.06;5113279;28;20039;-83
2022/06/03 10:39:27;;;;;;;0.40;0.40;;;;;;;21.59;43.08;101035.25;5111625;28;20073;-83
2022/06/03 10:42:01;;;;;;;0.73;0.73;;;;;;;21.70;43.49;101040.66;5122775;28;20145;-85
2022/06/03 10:44:36;;;;;;;0.20;0.20;;;;;;;21.85;42.70;101040.59;5140959;28;20057;-84
2022/06/03 10:47:21;;;;;;;0.22;0.22;;;;;;;21.91;42.45;101033.94;5125857;28;20479;-84
2022/06/03 10:50:01;;;;;;;0.20;0.20;;;;;;;22.06;41.75;101032.00;5159451;28;20031;-85
2022/06/03 11:01:55;;;;;;;0.30;0.30;;;;;;;22.24;42.07;101014.66;5142243;28;20125;-86
2022/06/03 11:04:33;;;;;;;0.20;0.20;;;;;;;22.32;42.80;101020.31;5109420;28;20050;-84
2022/06/03 11:07:30;;;;;;;0.45;0.45;;;;;;;22.43;42.50;101014.22;5124928;28;20124;-85
2022/06/03 11:10:05;;;;;;;0.30;0.30;;;;;;;22.50;42.91;101011.97;5141589;28;20038;-85
2022/06/03 11:12:40;;;;;;;0.40;0.40;;;;;;;22.65;42.49;101015.31;5146782;28;20051;-83
2022/06/03 11:15:39;;;;;;;0.27;0.27;;;;;;;22.75;41.40;101012.84;5133615;28;20557;-86
2022/06/03 11:18:16;;;;;;;0.20;0.20;;;;;;;22.88;40.35;101007.44;5101595;28;20507;-86
2022/06/03 11:20:52;;;;;;;0.32;0.32;;;;;;;;;;5126417;28;20738;-85
2022/06/03 11:23:23;;;;;;;0.20;0.20;;;;;;;23.02;41.14;101009.03;5144513;28;20050;-85
2022/06/03 11:26:00;;;;;;;0.32;0.32;;;;;;;23.08;41.53;101004.09;5116321;28;20043;-85
2022/06/03 11:28:42;;;;;;;0.20;0.20;;;;;;;23.17;42.00;100996.31;5105431;28;20043;-83
2022/06/03 11:31:26;;;;;;;0.20;0.20;;;;;;;23.23;41.16;100995.88;5121539;28;20031;-84
2022/06/03 11:34:14;;;;;;;0.70;0.70;;;;;;;23.22;40.79;100981.66;5132210;28;20061;-85
2022/06/03 11:36:54;;;;;;;0.65;0.40;;;;;;;23.32;40.89;100983.63;5099459;28;20035;-85
2022/06/03 11:39:43;;;;;;;0.57;0.57;;;;;;;23.39;40.35;100988.38;5129482;28;20192;-86
2022/06/03 11:42:45;;;;;;;0.40;0.40;;;;;;;23.40;40.90;100984.72;5111996;28;20457;-84
2022/06/03 11:45:19;;;;;;;0.22;0.22;;;;;;;23.50;40.99;100982.22;5116648;28;20050;-85
2022/06/03 11:48:07;;;;;;;0.30;0.30;;;;;;;23.57;40.27;100971.84;5119608;28;20034;-83
2022/06/03 11:50:41;;;;;;;0.30;0.30;;;;;;;23.57;40.22;100972.72;5114548;28;20053;-84
2022/06/03 11:53:24;;;;;;;0.30;0.30;;;;;;;23.60;40.40;100965.41;5122495;28;20039;-84
2022/06/03 11:56:00;;;;;;;0.32;0.32;;;;;;;23.76;38.62;100965.91;5100922;28;20261;-84
2022/06/03 11:58:37;;;;;;;0.35;0.35;;;;;;;23.76;39.92;100965.91;5120127;28;20443;-84
2022/06/03 12:01:30;;;;;;;12.57;2.25;;;;;;;23.77;39.95;100967.59;5101071;28;20049;-84
2022/06/03 12:04:30;;;;;;;0.73;0.73;;;;;;;23.80;39.84;100964.69;5127571;28;20085;-85
2022/06/03 12:07:16;;;;;;;0.30;0.30;;;;;;;23.82;40.08;100976.16;5107496;29;20047;-87
2022/06/03 12:09:57;;;;;;;0.60;0.60;;;;;;;23.88;40.14;100969.47;5131606;28;20105;-85
2022/06/03 12:15:30;;;;;;;0.30;0.30;;;;;;;23.97;39.60;100965.22;5132599;28;20109;-85
2022/06/03 12:18:10;;;;;;;1.38;0.40;;;;;;;23.96;40.07;100960.81;5119395;28;20034;-85
2022/06/03 12:20:48;;;;;;;0.47;0.47;;;;;;;23.97;40.41;100963.38;5138651;28;20051;-85
2022/06/03 12:23:20;;;;;;;0.30;0.30;;;;;;;24.02;39.96;100960.31;5136670;28;20039;-84
2022/06/03 12:25:56;;;;;;;0.20;0.20;;;;;;;24.07;39.82;100958.13;5109885;28;20187;-84
2022/06/03 12:28:33;;;;;;;0.30;0.30;;;;;;;24.02;39.28;100955.81;5103788;28;20038;-85
2022/06/03 12:31:22;;;;;;;0.35;0.35;;;;;;;24.03;39.77;100956.66;5117385;28;20043;-85
2022/06/03 12:34:20;;;;;;;0.20;0.20;;;;;;;24.11;39.75;100948.84;5119967;28;20031;-85
2022/06/03 12:36:56;;;;;;;0.30;0.30;;;;;;;24.15;38.97;100953.00;5146738;28;20059;-84
2022/06/03 12:39:27;;;;;;;0.40;0.40;;;;;;;24.19;39.72;100953.63;5135299;28;20027;-85
2022/06/03 12:42:11;;;;;;;0.32;0.32;;;;;;;24.27;40.11;100952.97;5121999;28;20229;-86
2022/06/03 12:44:51;;;;;;;0.40;0.40;;;;;;;24.45;39.33;100951.47;5125938;28;20039;-85
2022/06/03 12:47:31;;;;;;;0.32;0.32;;;;;;;24.44;39.80;100960.47;5148309;28;20047;-87
2022/06/03 12:50:04;;;;;;;0.30;0.30;;;;;;;24.48;39.73;100969.13;5148185;28;20054;-86
2022/06/03 12:52:42;;;;;;;0.63;0.55;;;;;;;24.51;39.71;100961.69;5120304;28;20079;-87
2022/06/03 12:55:13;;;;;;;0.30;0.30;;;;;;;24.65;39.01;100967.75;5088566;29;20039;-84
2022/06/03 12:57:58;;;;;;;0.22;0.22;;;;;;;24.64;39.83;100969.56;5095183;28;20039;-85
2022/06/03 13:00:52;;;;;;;0.28;0.28;;;;;;;24.70;39.38;100972.78;5123739;28;20035;-85
2022/06/03 13:03:23;;;;;;;0.70;0.70;;;;;;;24.80;39.80;100960.25;5128204;28;20039;-86
2022/06/03 13:06:00;;;;;;;0.30;0.30;;;;;;;24.96;38.29;100968.72;5150841;28;20057;-85
2022/06/03 13:09:34;;;;;;;0.25;0.25;;;;;;;24.83;38.94;100952.81;5117638;28;20107;-84
2022/06/03 13:11:30;;;;;;;0.35;0.35;;;;;;;24.96;38.71;100959.84;5156711;28;20042;-84
2022/06/03 13:14:22;;;;;;;0.95;0.75;;;;;;;24.99;39.05;100956.91;5119132;29;20039;-84
2022/06/03 13:16:53;;;;;;;0.38;0.38;;;;;;;25.05;38.28;100953.69;5098421;28;20031;-85
2022/06/03 13:19:24;;;;;;;0.60;0.60;;;;;;;25.11;38.66;100955.00;5134979;28;20503;-86
2022/06/03 13:22:29;;;;;;;0.28;0.28;;;;;;;25.26;39.02;100960.88;5137529;28;20126;-84
2022/06/03 13:25:28;;;;;;;0.68;0.68;;;;;;;25.30;38.13;100951.59;5056836;28;20412;-84
2022/06/03 13:28:24;;;;;;;0.30;0.30;;;;;;;25.50;37.92;100949.03;5098599;28;20073;-84